createdAt,value
2023-02-11T00:00:41.660Z,103260.63
2023-02-11T00:03:09.442Z,103258.50
2023-02-11T00:05:36.800Z,103256.09
2023-02-11T00:08:04.279Z,103261.50
2023-02-11T00:10:31.597Z,103252.50
2023-02-11T00:12:58.955Z,103248.66
2023-02-11T00:15:26.310Z,103247.63
2023-02-11T00:17:53.601Z,103239.56
2023-02-11T00:20:20.974Z,103238.81
2023-02-11T00:22:48.194Z,103240.34
2023-02-11T00:25:15.525Z,103249.63
2023-02-11T00:27:42.829Z,103244.19
2023-02-11T00:30:11.046Z,103238.84
2023-02-11T00:32:38.890Z,103245.56
2023-02-11T00:35:06.457Z,103238.72
2023-02-11T00:37:36.483Z,103234.47
2023-02-11T00:40:06.814Z,103240.44
2023-02-11T00:42:35.613Z,103233.44
2023-02-11T00:45:03.741Z,103246.25
2023-02-11T00:47:31.025Z,103236.56
2023-02-11T00:49:59.200Z,103236.88
2023-02-11T00:52:28.259Z,103238.19
2023-02-11T00:54:55.649Z,103240.66
2023-02-11T00:57:22.897Z,103236.66
2023-02-11T00:59:50.634Z,103231.72
2023-02-11T01:02:19.188Z,103229.69
2023-02-11T01:04:46.586Z,103228.63
2023-02-11T01:07:13.945Z,103225.53
2023-02-11T01:09:41.232Z,103229.38
2023-02-11T01:12:08.516Z,103218.78
2023-02-11T01:14:35.831Z,103218.88
2023-02-11T01:17:05.842Z,103209.06
2023-02-11T01:19:33.455Z,103215.69
2023-02-11T01:22:00.783Z,103210.38
2023-02-11T01:24:28.302Z,103214.75
2023-02-11T01:26:55.676Z,103212.16
2023-02-11T01:29:24.698Z,103215.75
2023-02-11T01:31:55.224Z,103209.66
2023-02-11T01:34:22.654Z,103213.31
2023-02-11T01:36:50.660Z,103204.03
2023-02-11T01:39:17.988Z,103201.41
2023-02-11T01:41:46.964Z,103204.72
2023-02-11T01:44:33.982Z,103196.97
2023-02-11T01:47:01.680Z,103206.56
2023-02-11T01:49:31.867Z,103203.31
2023-02-11T01:52:02.836Z,103206.78
2023-02-11T01:54:51.828Z,103216.56
2023-02-11T01:57:23.054Z,103213.38
2023-02-11T02:00:21.532Z,103213.81
2023-02-11T02:03:11.657Z,103210.31
2023-02-11T02:05:52.180Z,103208.53
2023-02-11T02:08:29.576Z,103201.91
2023-02-11T02:10:58.588Z,103203.75
2023-02-11T02:13:25.959Z,103198.19
2023-02-11T02:15:55.315Z,103204.91
2023-02-11T02:18:35.602Z,103196.19
2023-02-11T02:21:24.085Z,103192.66
2023-02-11T02:24:15.324Z,103194.94
2023-02-11T02:27:20.792Z,103192.19
2023-02-11T02:29:54.168Z,103194.06
2023-02-11T02:32:21.390Z,103191.97
2023-02-11T02:35:01.522Z,103184.25
2023-02-11T02:37:38.522Z,103175.97
2023-02-11T02:40:11.877Z,103174.66
2023-02-11T02:42:40.469Z,103182.72
2023-02-11T02:45:09.592Z,103176.91
2023-02-11T02:47:36.973Z,103178.47
2023-02-11T02:50:06.097Z,103181.25
2023-02-11T02:52:56.093Z,103178.00
2023-02-11T02:56:02.121Z,103174.41
2023-02-11T02:58:45.408Z,103181.19
2023-02-11T03:01:17.175Z,103177.00
2023-02-11T03:04:03.374Z,103174.31
2023-02-11T03:06:44.453Z,103171.81
2023-02-11T03:09:38.393Z,103168.97
2023-02-11T03:12:06.366Z,103173.84
2023-02-11T03:14:33.892Z,103166.44
2023-02-11T03:17:02.874Z,103165.84
2023-02-11T03:19:56.527Z,103167.84
2023-02-11T03:22:30.956Z,103168.22
2023-02-11T03:24:58.322Z,103174.31
2023-02-11T03:27:33.407Z,103166.22
2023-02-11T03:30:14.668Z,103160.75
2023-02-11T03:32:48.436Z,103161.72
2023-02-11T03:35:48.758Z,103163.41
2023-02-11T03:38:26.347Z,103164.06
2023-02-11T03:40:54.553Z,103160.41
2023-02-11T03:43:25.257Z,103154.59
2023-02-11T03:45:53.738Z,103155.06
2023-02-11T03:48:31.834Z,103152.06
2023-02-11T03:51:01.753Z,103157.78
2023-02-11T03:53:29.168Z,103160.28
2023-02-11T03:55:59.560Z,103155.13
2023-02-11T03:58:26.876Z,103158.75
2023-02-11T04:00:54.210Z,103152.56
2023-02-11T04:03:21.568Z,103148.81
2023-02-11T04:05:49.114Z,103148.56
2023-02-11T04:08:16.553Z,103148.34
2023-02-11T04:10:43.898Z,103159.06
2023-02-11T04:13:11.198Z,103161.59
2023-02-11T04:15:38.462Z,103162.72
2023-02-11T04:18:05.743Z,103167.50
2023-02-11T04:20:33.051Z,103171.72
2023-02-11T04:23:00.316Z,103177.81
2023-02-11T04:25:27.861Z,103170.09
2023-02-11T04:27:55.289Z,103174.13
2023-02-11T04:30:22.903Z,103176.34
2023-02-11T04:32:50.167Z,103182.38
2023-02-11T04:35:17.566Z,103176.34
2023-02-11T04:37:44.866Z,103169.50
2023-02-11T04:40:12.623Z,103171.41
2023-02-11T04:42:40.312Z,103175.63
2023-02-11T04:45:08.027Z,103180.47
2023-02-11T04:47:36.196Z,103188.22
2023-02-11T04:50:03.907Z,103186.97
2023-02-11T04:52:31.258Z,103175.97
2023-02-11T04:54:58.601Z,103182.91
2023-02-11T04:57:25.817Z,103180.22
2023-02-11T04:59:53.079Z,103174.22
2023-02-11T05:02:20.477Z,103163.25
2023-02-11T05:04:47.921Z,103166.84
2023-02-11T05:07:15.197Z,103166.28
2023-02-11T05:09:42.472Z,103169.78
2023-02-11T05:12:10.057Z,103153.88
2023-02-11T05:14:37.406Z,103153.53
2023-02-11T05:17:04.636Z,103155.66
2023-02-11T05:19:32.119Z,103152.56
2023-02-11T05:22:02.973Z,103155.25
2023-02-11T05:24:32.395Z,103167.31
2023-02-11T05:27:00.173Z,103153.97
2023-02-11T05:29:27.846Z,103150.53
2023-02-11T05:31:55.200Z,103150.41
2023-02-11T05:34:22.545Z,103152.22
2023-02-11T05:36:50.279Z,103150.41
2023-02-11T05:39:17.670Z,103150.56
2023-02-11T05:41:44.937Z,103153.75
2023-02-11T05:44:12.208Z,103149.47
2023-02-11T05:46:39.677Z,103149.38
2023-02-11T05:49:07.035Z,103148.34
2023-02-11T05:51:34.217Z,103142.56
2023-02-11T05:54:01.836Z,103145.06
2023-02-11T05:56:29.182Z,103145.75
2023-02-11T05:58:59.062Z,103149.78
2023-02-11T06:01:27.149Z,103143.41
2023-02-11T06:03:54.967Z,103150.31
2023-02-11T06:06:22.246Z,103153.03
2023-02-11T06:08:49.568Z,103152.38
2023-02-11T06:11:17.294Z,103139.16
2023-02-11T06:13:44.513Z,103150.41
2023-02-11T06:16:21.847Z,103142.78
2023-02-11T06:18:55.812Z,103146.19
2023-02-11T06:21:26.471Z,103142.78
2023-02-11T06:23:58.087Z,103143.13
2023-02-11T06:26:25.576Z,103163.06
2023-02-11T06:28:52.931Z,103166.81
2023-02-11T06:31:20.229Z,103162.03
2023-02-11T06:33:47.728Z,103158.59
2023-02-11T06:36:19.430Z,103158.00
2023-02-11T06:38:47.158Z,103163.28
2023-02-11T06:41:16.495Z,103165.41
2023-02-11T06:43:50.425Z,103163.59
2023-02-11T06:46:17.758Z,103174.59
2023-02-11T06:48:45.225Z,103169.94
2023-02-11T06:51:13.822Z,103170.94
2023-02-11T06:53:43.989Z,103177.59
2023-02-11T06:56:16.083Z,103176.59
2023-02-11T06:58:43.417Z,103172.22
2023-02-11T07:01:14.019Z,103182.06
2023-02-11T07:03:46.849Z,103179.56
2023-02-11T07:06:20.380Z,103179.22
2023-02-11T07:08:48.623Z,103189.16
2023-02-11T07:11:24.467Z,103201.78
2023-02-11T07:13:53.818Z,103198.81
2023-02-11T07:16:21.211Z,103204.97
2023-02-11T07:18:48.976Z,103213.44
2023-02-11T07:21:19.435Z,103208.25
2023-02-11T07:23:48.340Z,103210.69
2023-02-11T07:26:18.202Z,103211.66
2023-02-11T07:28:45.941Z,103209.34
2023-02-11T07:31:16.180Z,103217.41
2023-02-11T07:33:45.798Z,103225.69
2023-02-11T07:36:14.788Z,103228.81
2023-02-11T07:38:42.497Z,103223.78
2023-02-11T07:41:12.427Z,103217.88
2023-02-11T07:43:40.279Z,103230.41
2023-02-11T07:46:09.986Z,103222.09
2023-02-11T07:48:37.369Z,103224.22
2023-02-11T07:51:16.858Z,103219.59
2023-02-11T07:53:44.656Z,103222.38
2023-02-11T07:56:14.167Z,103221.13
2023-02-11T07:58:43.064Z,103219.13
2023-02-11T08:01:12.631Z,103219.13
2023-02-11T08:03:41.987Z,103216.91
2023-02-11T08:06:17.787Z,103212.00
2023-02-11T08:08:45.420Z,103208.34
2023-02-11T08:11:26.786Z,103206.59
2023-02-11T08:13:57.073Z,103217.34
2023-02-11T08:16:27.341Z,103216.84
2023-02-11T08:18:57.730Z,103214.66
2023-02-11T08:21:25.723Z,103215.88
2023-02-11T08:23:53.312Z,103220.97
2023-02-11T08:26:25.325Z,103220.38
2023-02-11T08:28:53.612Z,103212.69
2023-02-11T08:31:26.457Z,103215.44
2023-02-11T08:33:54.936Z,103223.94
2023-02-11T08:36:24.974Z,103216.56
2023-02-11T08:38:57.091Z,103219.41
2023-02-11T08:41:28.054Z,103210.09
2023-02-11T08:43:56.080Z,103219.94
2023-02-11T08:46:23.375Z,103219.94
2023-02-11T08:48:50.905Z,103229.78
2023-02-11T08:51:21.061Z,103235.56
2023-02-11T08:53:48.802Z,103232.59
2023-02-11T08:56:16.985Z,103231.47
2023-02-11T08:58:44.636Z,103233.78
2023-02-11T09:01:13.590Z,103226.47
2023-02-11T09:03:41.120Z,103234.72
2023-02-11T09:06:10.012Z,103241.03
2023-02-11T09:08:38.451Z,103245.06
2023-02-11T09:11:06.273Z,103245.13
2023-02-11T09:13:33.815Z,103248.88
2023-02-11T09:16:02.669Z,103242.44
2023-02-11T09:18:30.402Z,103238.66
2023-02-11T09:21:11.630Z,103237.66
2023-02-11T09:23:41.768Z,103232.75
2023-02-11T09:26:18.242Z,103233.97
2023-02-11T09:28:46.223Z,103237.34
2023-02-11T09:31:16.775Z,103237.50
2023-02-11T09:33:48.958Z,103223.81
2023-02-11T09:36:19.299Z,103226.78
2023-02-11T09:38:50.946Z,103238.72
2023-02-11T09:41:25.577Z,103234.78
2023-02-11T09:44:02.964Z,103234.78
2023-02-11T09:46:37.806Z,103245.03
2023-02-11T09:49:05.592Z,103243.75
2023-02-11T09:51:49.444Z,103234.09
2023-02-11T09:54:29.569Z,103247.00
2023-02-11T09:56:57.207Z,103235.03
2023-02-11T09:59:24.515Z,103226.50
2023-02-11T10:01:59.485Z,103233.19
2023-02-11T10:04:49.501Z,103229.91
2023-02-11T10:07:19.469Z,103236.78
2023-02-11T10:09:59.357Z,103240.16
2023-02-11T10:12:26.868Z,103247.78
2023-02-11T10:14:53.905Z,103237.75
2023-02-11T10:17:37.225Z,103245.63
2023-02-11T10:20:23.881Z,103233.19
2023-02-11T10:22:57.657Z,103229.16
2023-02-11T10:25:35.549Z,103234.81
2023-02-11T10:28:13.795Z,103232.16
2023-02-11T10:30:46.541Z,103236.03
2023-02-11T10:33:24.883Z,103215.50
2023-02-11T10:35:53.006Z,103223.38
2023-02-11T10:38:20.340Z,103232.69
2023-02-11T10:40:48.067Z,103235.41
2023-02-11T10:43:17.784Z,103237.13
2023-02-11T10:45:49.218Z,103243.34
2023-02-11T10:48:41.860Z,103251.44
2023-02-11T10:51:15.672Z,103258.53
2023-02-11T10:53:43.344Z,103259.03
2023-02-11T10:56:13.029Z,103248.25
2023-02-11T10:58:46.489Z,103236.63
2023-02-11T11:01:23.956Z,103247.66
2023-02-11T11:03:52.844Z,103245.13
2023-02-11T11:06:31.598Z,103243.69
2023-02-11T11:08:59.384Z,103243.94
2023-02-11T11:11:27.245Z,103235.56
2023-02-11T11:13:59.186Z,103230.09
2023-02-11T11:16:30.283Z,103228.66
2023-02-11T11:19:06.816Z,103235.09
2023-02-11T11:21:41.303Z,103230.59
2023-02-11T11:24:20.325Z,103217.22
2023-02-11T11:26:50.892Z,103221.31
2023-02-11T11:29:20.338Z,103222.88
2023-02-11T11:31:50.395Z,103219.16
2023-02-11T11:34:45.627Z,103213.78
2023-02-11T11:37:15.154Z,103215.03
2023-02-11T11:39:42.492Z,103213.25
2023-02-11T11:42:43.603Z,103216.28
2023-02-11T11:45:20.083Z,103210.72
2023-02-11T11:48:06.146Z,103208.31
2023-02-11T11:50:45.399Z,103208.28
2023-02-11T11:53:31.002Z,103204.66
2023-02-11T11:56:03.318Z,103202.75
2023-02-11T11:58:31.833Z,103204.56
2023-02-11T12:01:29.653Z,103205.75
2023-02-11T12:04:25.263Z,103196.97
2023-02-11T12:07:04.368Z,103195.91
2023-02-11T12:09:55.879Z,103201.56
2023-02-11T12:12:38.661Z,103189.47
2023-02-11T12:15:08.895Z,103192.56
2023-02-11T12:17:59.492Z,103176.38
2023-02-11T12:20:54.882Z,103182.53
2023-02-11T12:23:50.684Z,103188.97
2023-02-11T12:26:24.111Z,103191.91
2023-02-11T12:29:02.529Z,103190.59
2023-02-11T12:31:44.267Z,103180.53
2023-02-11T12:34:25.008Z,103188.69
2023-02-11T12:37:21.247Z,103183.75
2023-02-11T12:40:15.905Z,103185.94
2023-02-11T12:43:10.629Z,103182.72
2023-02-11T12:46:16.091Z,103174.28
2023-02-11T12:49:09.527Z,103168.13
2023-02-11T12:52:01.983Z,103182.66
2023-02-11T12:54:46.575Z,103169.50
2023-02-11T12:57:18.654Z,103169.69
2023-02-11T13:00:06.478Z,103174.28
2023-02-11T13:02:54.373Z,103173.16
2023-02-11T13:05:38.391Z,103162.41
2023-02-11T13:08:22.747Z,103163.97
2023-02-11T13:11:03.140Z,103162.44
2023-02-11T13:13:46.453Z,103161.84
2023-02-11T13:16:18.794Z,103154.31
2023-02-11T13:18:52.729Z,103157.41
2023-02-11T13:21:28.987Z,103147.75
2023-02-11T13:24:01.155Z,103153.66
2023-02-11T13:26:46.631Z,103147.44
2023-02-11T13:29:27.717Z,103145.47
2023-02-11T13:32:15.846Z,103141.53
2023-02-11T13:34:43.151Z,103142.16
2023-02-11T13:37:21.292Z,103136.66
2023-02-11T13:40:11.580Z,103124.81
2023-02-11T13:42:56.746Z,103121.13
2023-02-11T13:45:41.567Z,103124.91
2023-02-11T13:48:38.140Z,103122.81
2023-02-11T13:51:08.780Z,103120.44
2023-02-11T13:54:02.845Z,103116.16
2023-02-11T13:56:33.616Z,103114.28
2023-02-11T13:59:03.300Z,103111.41
2023-02-11T14:02:23.123Z,103117.72
2023-02-11T14:05:31.106Z,103113.00
2023-02-11T14:08:26.169Z,103109.94
2023-02-11T14:10:57.605Z,103105.47
2023-02-11T14:13:29.334Z,103105.44
2023-02-11T14:16:31.529Z,103114.22
2023-02-11T14:19:04.195Z,103096.66
2023-02-11T14:21:37.354Z,103103.44
2023-02-11T14:24:04.946Z,103102.09
2023-02-11T14:26:54.792Z,103107.34
2023-02-11T14:30:03.306Z,103114.28
2023-02-11T14:33:12.289Z,103107.53
2023-02-11T14:35:47.361Z,103097.84
2023-02-11T14:38:36.672Z,103090.22
2023-02-11T14:41:25.050Z,103095.34
2023-02-11T14:43:58.884Z,103096.72
2023-02-11T14:46:30.811Z,103094.75
2023-02-11T14:49:01.486Z,103101.75
2023-02-11T14:51:32.059Z,103093.19
2023-02-11T14:54:22.842Z,103087.50
2023-02-11T14:57:29.778Z,103091.69
2023-02-11T15:00:03.119Z,103092.81
2023-02-11T15:02:36.380Z,103089.03
2023-02-11T15:05:39.276Z,103089.56
2023-02-11T15:08:08.481Z,103093.56
2023-02-11T15:10:43.895Z,103089.94
2023-02-11T15:13:20.562Z,103087.16
2023-02-11T15:15:48.636Z,103086.47
2023-02-11T15:18:22.892Z,103089.41
2023-02-11T15:20:52.148Z,103081.41
2023-02-11T15:23:23.607Z,103088.72
2023-02-11T15:25:56.317Z,103090.41
2023-02-11T15:28:25.075Z,103086.28
2023-02-11T15:31:12.912Z,103088.25
2023-02-11T15:33:40.770Z,103085.81
2023-02-11T15:36:11.662Z,103082.47
2023-02-11T15:38:40.108Z,103081.72
2023-02-11T15:41:07.949Z,103084.56
2023-02-11T15:43:43.714Z,103079.44
2023-02-11T15:46:14.719Z,103087.56
2023-02-11T15:48:45.828Z,103088.84
2023-02-11T15:51:35.507Z,103085.97
2023-02-11T15:54:19.239Z,103089.69
2023-02-11T15:57:03.221Z,103094.31
2023-02-11T15:59:38.429Z,103086.69
2023-02-11T16:02:08.817Z,103085.47
2023-02-11T16:04:36.408Z,103101.38
2023-02-11T16:07:05.209Z,103093.19
2023-02-11T16:09:35.644Z,103094.13
2023-02-11T16:12:18.029Z,103090.56
2023-02-11T16:14:45.381Z,103103.47
2023-02-11T16:17:23.332Z,103095.00
2023-02-11T16:19:52.043Z,103099.47
2023-02-11T16:22:24.675Z,103103.25
2023-02-11T16:24:53.639Z,103105.25
2023-02-11T16:27:30.346Z,103101.50
2023-02-11T16:29:58.423Z,103105.25
2023-02-11T16:32:27.955Z,103101.97
2023-02-11T16:35:01.000Z,103095.44
2023-02-11T16:37:28.450Z,103101.66
2023-02-11T16:39:56.864Z,103108.09
2023-02-11T16:42:24.748Z,103110.44
2023-02-11T16:44:52.059Z,103111.84
2023-02-11T16:47:25.151Z,103107.94
2023-02-11T16:49:55.509Z,103110.09
2023-02-11T16:52:24.686Z,103106.22
2023-02-11T16:54:52.014Z,103118.75
2023-02-11T16:57:22.257Z,103121.84
2023-02-11T16:59:49.534Z,103122.16
2023-02-11T17:02:26.249Z,103126.81
2023-02-11T17:04:54.754Z,103126.63
2023-02-11T17:07:22.741Z,103135.22
2023-02-11T17:09:56.324Z,103129.56
2023-02-11T17:12:27.219Z,103125.97
2023-02-11T17:14:54.892Z,103121.91
2023-02-11T17:17:23.922Z,103126.38
2023-02-11T17:19:51.528Z,103130.78
2023-02-11T17:22:19.013Z,103123.25
2023-02-11T17:24:46.492Z,103128.75
2023-02-11T17:27:17.244Z,103135.78
2023-02-11T17:29:46.540Z,103133.13
2023-02-11T17:32:14.433Z,103132.53
2023-02-11T17:34:41.746Z,103127.31
2023-02-11T17:37:09.595Z,103135.19
2023-02-11T17:39:39.421Z,103129.91
2023-02-11T17:42:08.920Z,103139.88
2023-02-11T17:44:37.261Z,103139.47
2023-02-11T17:47:30.269Z,103139.63
2023-02-11T17:49:57.804Z,103138.09
2023-02-11T17:52:27.840Z,103152.56
2023-02-11T17:54:55.589Z,103148.00
2023-02-11T17:57:23.004Z,103152.34
2023-02-11T17:59:51.659Z,103149.59
2023-02-11T18:02:19.588Z,103149.31
2023-02-11T18:04:47.044Z,103147.69
2023-02-11T18:07:14.688Z,103144.00
2023-02-11T18:09:42.383Z,103144.63
2023-02-11T18:12:10.802Z,103147.03
2023-02-11T18:14:40.583Z,103147.22
2023-02-11T18:17:07.962Z,103147.16
2023-02-11T18:19:36.651Z,103149.41
2023-02-11T18:22:04.457Z,103146.19
2023-02-11T18:24:31.898Z,103152.81
2023-02-11T18:26:59.270Z,103150.41
2023-02-11T18:29:27.179Z,103146.13
2023-02-11T18:31:56.761Z,103148.47
2023-02-11T18:34:24.537Z,103151.44
2023-02-11T18:36:52.339Z,103150.47
2023-02-11T18:39:20.325Z,103151.13
2023-02-11T18:41:50.082Z,103152.63
2023-02-11T18:44:22.209Z,103156.31
2023-02-11T18:46:53.673Z,103153.47
2023-02-11T18:49:21.338Z,103147.75
2023-02-11T18:51:48.695Z,103152.63
2023-02-11T18:54:16.159Z,103152.75
2023-02-11T18:56:43.492Z,103155.06
2023-02-11T18:59:11.000Z,103153.66
2023-02-11T19:01:40.777Z,103158.50
2023-02-11T19:04:08.368Z,103162.78
2023-02-11T19:06:37.373Z,103167.44
2023-02-11T19:09:10.422Z,103161.75
2023-02-11T19:11:54.079Z,103173.94
2023-02-11T19:14:21.400Z,103163.00
2023-02-11T19:16:50.672Z,103165.81
2023-02-11T19:19:18.775Z,103165.94
2023-02-11T19:21:46.596Z,103171.03
2023-02-11T19:24:19.879Z,103178.44
2023-02-11T19:26:48.147Z,103165.53
2023-02-11T19:29:15.898Z,103165.44
2023-02-11T19:31:44.229Z,103162.25
2023-02-11T19:34:14.396Z,103166.16
2023-02-11T19:36:42.188Z,103169.72
2023-02-11T19:39:10.366Z,103166.00
2023-02-11T19:41:38.235Z,103172.50
2023-02-11T19:44:06.570Z,103171.00
2023-02-11T19:46:37.326Z,103167.84
2023-02-11T19:49:05.542Z,103179.41
2023-02-11T19:51:33.828Z,103173.66
2023-02-11T19:54:01.264Z,103174.56
2023-02-11T19:56:33.368Z,103168.28
2023-02-11T19:59:04.434Z,103166.66
2023-02-11T20:01:32.007Z,103165.59
2023-02-11T20:03:59.304Z,103162.19
2023-02-11T20:06:29.519Z,103172.09
2023-02-11T20:09:06.864Z,103169.47
2023-02-11T20:11:35.557Z,103166.25
2023-02-11T20:14:03.997Z,103170.28
2023-02-11T20:16:46.890Z,103172.00
2023-02-11T20:19:18.254Z,103176.84
2023-02-11T20:21:47.782Z,103168.16
2023-02-11T20:24:19.462Z,103174.50
2023-02-11T20:26:51.870Z,103175.78
2023-02-11T20:29:23.628Z,103179.75
2023-02-11T20:31:53.722Z,103183.19
2023-02-11T20:34:21.955Z,103168.28
2023-02-11T20:36:52.247Z,103173.31
2023-02-11T20:39:22.648Z,103174.00
2023-02-11T20:41:51.057Z,103179.69
2023-02-11T20:44:18.864Z,103182.84
2023-02-11T20:46:46.636Z,103173.34
2023-02-11T20:49:16.699Z,103178.88
2023-02-11T20:51:44.344Z,103179.84
2023-02-11T20:54:14.036Z,103180.09
2023-02-11T20:56:41.850Z,103174.03
2023-02-11T20:59:11.765Z,103181.03
2023-02-11T21:01:42.929Z,103182.34
2023-02-11T21:04:12.306Z,103184.41
2023-02-11T21:06:42.386Z,103183.56
2023-02-11T21:09:10.841Z,103186.22
2023-02-11T21:11:38.036Z,103185.91
2023-02-11T21:14:06.044Z,103184.44
2023-02-11T21:16:33.559Z,103182.13
2023-02-11T21:19:01.353Z,103184.41
2023-02-11T21:21:29.203Z,103193.00
2023-02-11T21:23:56.872Z,103189.25
2023-02-11T21:26:24.955Z,103188.34
2023-02-11T21:28:54.820Z,103181.66
2023-02-11T21:31:33.088Z,103190.19
2023-02-11T21:34:00.570Z,103190.72
2023-02-11T21:36:29.069Z,103182.63
2023-02-11T21:38:56.551Z,103183.69
2023-02-11T21:41:24.978Z,103182.47
2023-02-11T21:43:52.411Z,103184.03
2023-02-11T21:46:21.156Z,103184.84
2023-02-11T21:48:49.107Z,103200.84
2023-02-11T21:51:20.154Z,103191.16
2023-02-11T21:53:47.690Z,103189.00
2023-02-11T21:56:17.979Z,103193.78
2023-02-11T21:58:46.187Z,103202.16
2023-02-11T22:01:17.161Z,103193.00
2023-02-11T22:03:45.217Z,103191.94
2023-02-11T22:06:16.269Z,103186.34
2023-02-11T22:08:43.764Z,103187.53
2023-02-11T22:11:12.452Z,103185.75
2023-02-11T22:13:40.408Z,103191.94
2023-02-11T22:16:13.399Z,103189.94
2023-02-11T22:18:41.655Z,103192.69
2023-02-11T22:21:20.070Z,103189.38
2023-02-11T22:23:48.009Z,103203.31
2023-02-11T22:26:21.868Z,103201.84
2023-02-11T22:28:50.672Z,103198.41
2023-02-11T22:31:21.616Z,103195.06
2023-02-11T22:33:49.454Z,103200.06
2023-02-11T22:36:25.517Z,103197.81
2023-02-11T22:38:53.684Z,103188.53
2023-02-11T22:41:22.576Z,103193.69
2023-02-11T22:43:50.526Z,103187.00
2023-02-11T22:46:19.410Z,103190.28
2023-02-11T22:48:47.433Z,103186.84
2023-02-11T22:51:23.200Z,103191.09
2023-02-11T22:53:55.364Z,103195.00
2023-02-11T22:56:23.509Z,103204.16
2023-02-11T22:58:51.662Z,103206.19
2023-02-11T23:01:19.651Z,103213.22
2023-02-11T23:03:47.087Z,103213.91
2023-02-11T23:06:14.517Z,103208.94
2023-02-11T23:08:43.320Z,103216.94
2023-02-11T23:11:19.318Z,103213.78
2023-02-11T23:13:48.652Z,103216.75
2023-02-11T23:16:19.444Z,103213.44
2023-02-11T23:18:48.018Z,103210.34
2023-02-11T23:21:24.420Z,103216.03
2023-02-11T23:23:57.116Z,103206.25
2023-02-11T23:26:24.941Z,103222.91
2023-02-11T23:28:52.237Z,103216.47
2023-02-11T23:31:31.472Z,103227.84
2023-02-11T23:33:58.914Z,103229.84
2023-02-11T23:36:26.488Z,103224.31
2023-02-11T23:38:53.746Z,103224.81
2023-02-11T23:41:21.767Z,103225.09
2023-02-11T23:43:51.072Z,103222.53
2023-02-11T23:46:19.334Z,103223.16
2023-02-11T23:48:46.651Z,103237.63
2023-02-11T23:51:14.037Z,103229.75
2023-02-11T23:53:41.621Z,103225.56
2023-02-11T23:56:10.749Z,103236.09
2023-02-11T23:58:37.990Z,103231.06
